createdAt,value
2023-04-30T15:53:00.772Z,3.00
2023-04-30T15:57:19.435Z,2.90
2023-04-30T16:01:26.353Z,2.80
2023-04-30T16:05:11.153Z,2.10
2023-04-30T16:09:39.980Z,2.30
2023-04-30T16:26:41.310Z,2.70
2023-04-30T16:31:11.467Z,2.50
2023-04-30T16:35:33.254Z,2.50
2023-04-30T16:40:02.332Z,2.30
2023-04-30T17:01:07.872Z,2.20
2023-04-30T17:05:37.072Z,2.50
2023-04-30T17:10:06.318Z,2.80
2023-04-30T17:14:25.986Z,2.20
2023-04-30T17:18:53.946Z,2.40
2023-04-30T17:23:14.946Z,2.70
2023-04-30T17:53:38.248Z,2.20
2023-04-30T17:57:56.319Z,3.10
2023-04-30T18:02:13.671Z,2.50
2023-04-30T18:36:54.032Z,2.90
2023-04-30T18:41:23.372Z,2.60
2023-04-30T18:45:52.814Z,2.70
2023-04-30T18:50:22.549Z,2.20
2023-04-30T18:54:44.112Z,2.50
2023-04-30T19:11:42.542Z,3.30
2023-04-30T19:16:11.701Z,3.90
2023-04-30T19:20:30.782Z,4.50
2023-04-30T19:24:59.534Z,4.20
2023-04-30T19:51:15.955Z,4.40
2023-04-30T19:55:45.198Z,4.20
2023-04-30T20:00:13.954Z,4.70
2023-04-30T20:04:43.175Z,4.50
2023-04-30T20:26:19.109Z,4.10
2023-04-30T20:30:48.383Z,4.00
2023-04-30T20:52:21.054Z,4.90
2023-04-30T20:56:40.035Z,4.50
2023-04-30T21:01:09.665Z,5.80
2023-04-30T21:22:40.745Z,5.10
2023-04-30T21:27:10.306Z,4.60
2023-04-30T21:31:28.507Z,5.30
2023-04-30T21:35:57.900Z,5.60
2023-04-30T21:40:26.594Z,5.40
2023-04-30T21:44:56.837Z,4.90
2023-04-30T22:06:44.659Z,6.50
2023-04-30T22:11:14.025Z,6.00
2023-04-30T22:15:48.275Z,5.80
2023-04-30T22:33:08.904Z,5.50
2023-04-30T22:37:38.213Z,5.70
2023-04-30T22:59:25.297Z,5.50
2023-04-30T23:03:36.870Z,5.80
2023-04-30T23:07:54.796Z,5.60
2023-04-30T23:12:13.921Z,5.20
2023-04-30T23:30:18.237Z,7.50
2023-04-30T23:34:39.861Z,6.80
2023-04-30T23:39:02.384Z,6.90
2023-04-30T23:47:58.617Z,7.20
2023-04-30T23:52:27.918Z,7.80
